Timeline UpdatesTrip UpdatesNews PostsPvt Posts♥♥Travel TipsAdmin PostsConv PostsFollowed PostsChat RequestsBlog PostsPNR Posts

Disclaimer
Search
 
 
Fri Oct 31, 2014 10:21:38 ISTHomeTrainsΣChainsAtlasPNRForumGalleryNewsFAQTripsMembersLoginFeedback
No Recent News for this Train
Other Trains in the News **new
Latest...
.
Tue Sep 02, 2014 (11:54AM)
⇐ Return Journey: Train# 18478

18477/Kalinga Utkal Express

Time-Table HAS CHANGED.
Sep 02 2014 (11:54AM)
Change Departure Station:
Change Arrival Station:
Post a Train Travel TipPost a Train Travel Tip **new
Post a Comment/Question/Picture/VideoPost a Comment/Question/Picture/Video
Pantry/Catering
✓ Pantry Car Avbl
✓ Catering Avbl
RSA - Rake Sharing
Rake/Coach Composition
Coach Composition:ENG-SLR-GS-GS-A1-B2-B1-S12-S11-S10-PC-S9-S8-S7-S6-S5-S4-S3-S2-S1-GS-SLR. By DJ 132 Entry# 701081
Loco
PURI-NZM: TKD WAP-7 NZM-HW: LDH WDM-3A
News    PNR    Forum    Time-Table    Availability    Fare Chart    Map    Arr/Dep History    Trips    Gallery    ΣChains    X/O    Timeline    
Travel Time: 29h 10m    38 halts    Distance: 1387 km    Avg Speed: 47 km/hr
Type: Mail/Express
Zone: ECoR/East Coast
Departs @ 15:45 (Avg 36m late)
Platform# 2
SMTWTFS
Bilaspur Junction/BSP 
Arrives @ 20:55 +1 night (Avg 22m late)
Platform# 2
SMTWTFS
Haridwar Junction/HW 

38 halts. 184 intermediate Stations between Bilaspur Junction and Haridwar Junction

Show ALL intermediate Stations  Show Old Time-Table

#TrkCodeStation NameX/OArrivesAvgDepartsAvgHaltPFDay#KmSpeedElevZoneAddress
1%==%PURIPuri (5)  -20:55+1951-984.24912mECoRPuri, Odisha
2%==%SILSakhi Gopal (3)  21:15+2321:16+231m--1-967.84810mECoRPuri, Odisha
3/==/KURKhurda Road Junction (7)X  21:50+2121:55+235m--1-940.35725mECoRKhordha, Odisha
4/==/BBSBhubaneswar (4)  22:20 22:15+2922:25 22:20+325m41-921.44840mECoRBhubaneshwar, Odisha
5%==/CTCCuttack Junction (5)  22:50 22:55+3122:55 23:00+315m11-893.58628mECoRCuttack, Odisha
6/==/JJKRJajpur Keonjhar Road (4)  23:51 23:50+3723:52+371 2m--1-821.54036mECoRJajpur, Odisha
7/==/BHCBhadrak (4)X  00:58+2301:00+262m--2-777.98723mECoRBhadrak, Odisha
8/==/SOROSoroX  01:21 01:20+3101:22+311 2m--2-748.97214mSERSoro, Odisha
9/==/BLSBalasore (4)X  01:50+3001:55+305m--2-715.47319mSERBalasore, Odisha
10/==/BTSBasta (3)X  02:19 02:18+3302:20+341 2m--2-687.47316mSERBasta, Odisha
11/==/JERJaleswar (4)X  02:37 02:36+2602:38+301 2m--2-668.08413mSERJaleswar, Odisha
12/==/HIJHijli (2)  03:25 03:24+3303:26+391 2m--2-603.25048mSERdist - paschim medinipur, West Bengal
13/==/CKUChakulia (4)  04:47+2204:48+251m--2-535.483126mSERChakulia, Jharkhand
14/==/GTSGhatsila (3)X  05:11 05:10+1205:12+151 2m--2-504.845103mSEREast Singhbhum, Jharkhand
15/==/TATATatanagar Junction (5)  06:05 06:00+2706:10+315 10m32-468.760164mSER91-657-2423026, Jharkhand
16/==/SINISini Junction (3)X  06:37+3306:38 06:39+331 2m--2-441.754182mSERNational Highway 33, Jharkhand
17/==/RKSNRajkharsawan Junction (3)  06:54 06:56+3506:55 06:57+361m--2-426.552189mSERSaraikela Kharswan District, Jharkhand
18/==/CKPChakradharpur (3)X  07:20+3107:30+3110m--2-406.484235mSERChakradharpur (West Singhbhum), Jharkhand
19/==/GOLGoilkera (2)  07:54+3707:55+381m--2-372.655333mSERGoilkera, Jharkhand
20/==/MOUManoharpur  08:25+3608:26+371m--2-345.170228mSERManoharpur, Jharkhand
21/==/BZRBisra  08:50 08:48+3808:51 08:49+391m--2-319.451224mSERSundargarh, Odisha
22/==/BNDMBondamunda (2)  08:55 08:58+2008:56 08:59+191m--2-311.924213mSERRourkela, Odisha
23/--/ROURourkela Junction (5)X  09:15+3709:30+3715m12-305.466198mSERRourkela, Odisha
24/==/GPRaj Gangpur (3)  09:57+4309:58+441m12-275.574237mSERRaj Ganpur, Odisha
25/==/BMBBamra (3)X  10:26+4710:27+481m--2-240.935259mSERBamra PH : 06642-229268, Odisha
26/==/JSGJharsuguda Junction (5)X  11:30+2711:40+3010m--2-204.464236mSERJharsuguda, Odisha
27/==/BRJNBrajrajnagarX  11:49 11:51+3311:50 11:53+331 2m--2-192.767212mSECRBrajrajnagar, Odisha
28/==/BPHBelpahar (2)X  11:59 12:01+3412:00 12:03+371 2m--2-183.883235mSECRBelpahar, Odisha
29/==/RIGRaigarh (3)X  12:36 12:40+3812:41 12:45+385m22-132.878220mSECRRaigarh, Chhattisgarh
30/==/KHSKharsia  13:04 13:11+4813:05 13:13+481 2m--2-98.871 SECRNational Highway 200, Chhattisgarh
31/==/SKTSakti (4)  13:18 13:26+5013:19 13:28+501 2m--2-83.474237mSECRJanjgir-Champa, Chhattisgarh
32/==/BUABaradwar  13:31 13:40+5213:32 13:42+541 2m--2-68.552 SECRJanjgir-Champa, Chhattisgarh
33/==/CPHChampa Junction (3)  13:49 14:00+5413:54 14:05+535m22-53.059264mSECRNational Highway 200 (07819-245767), Chhattisgarh
34/==/NIANaila  14:04 14:16+5214:05 14:18+521 2m--2-42.275273mSECRJanjgir, Chhattisgarh
35/==/AKTAkaltara (4)  14:18 14:30+5214:19 14:32+511 2m--2-27.228284mSECRDist. Janjgir Champa, Chhattisgarh
36/==/BSPBilaspur Junction (8)»  15:10 15:30+3015:25 15:45+3615m220.080271mSECRBilaspur, Chhattisgarh
37/==/KGBKargi Road  15:57 16:09+5415:58 16:11+541 2m--232.056327mSECRBilaspur, Chhattisgarh
38%==%BIGBelgahna  16:18 16:28+5516:19 16:30+561 2m--247.846327mSECRBilaspur, Chhattisgarh
39%==%PNDPendra Road  17:25 17:40+5717:30 17:45+575m92101.561620mSECRBilaspur district, Chhattisgarh
40%==%APRAnuppur Junction (4)X  18:20 18:35+1:0018:25 18:40+1:005m--2152.785487mSECRAnuppur, Madhya Pradesh
41/==/AALAmlaiX  18:35 18:49+1:0418:36 18:51+1:051 2m--2165.458495mSECRAnuppur, Madhya Pradesh
42/==/BUHBurhar  18:46 19:00+1:0518:47 19:02+1:061 2m--2174.135494mSECRBurhar, Madhya Pradesh
43/==/SDLShahdolX  19:25 19:35+5219:30 19:40+525m--2193.666466mSECR, Madhya Pradesh
44/==/BRSBirsinghpur  20:05 20:14+5520:06 20:16+551 2m--2231.054461mSECRPali, Madhya Pradesh
45/==/NRZBNowrozabadX  20:15 20:24+5520:16 20:26+551 2m--2238.252458mSECRNational Highway 78, Madhya Pradesh
46/==/UMRUmaria (3)  20:45 20:52+5020:50 20:57+495m22260.854469mSECRUmaria, Madhya Pradesh
47/==/CHDChandia Road (1)X  21:09 21:18+4521:10 21:20+461 2m12279.825406mSECRNational Highway 78, Madhya Pradesh
48/==/KMZKatni Murwara  22:55+3523:10+4115m--2319.670385mWCRMP 483504 ?, Madhya Pradesh
49/==/DMODamoh (2)X  00:43+3900:45+402m--3428.875365mWCRDamoh, Madhya Pradesh
50/==/PHAPatharia  01:05 01:06+4201:07 01:08+422m--3454.962382mWCRState Highway 14, Madhya Pradesh
51/==/SGOSaugor (2)X  01:57+4802:00+493m--3505.855519mWCRMP 470001Madhya pradesh, Madhya Pradesh
52/==/KYEKhurai (5)XO  02:58+3603:00+372m--3558.723439mWCRKhurai, Madhya Pradesh
53/==/MAKRMalkheri Junction (2)  04:05 03:45+2204:07 03:47+252m--3575.956421mWCRGuna, Madhya Pradesh
54/==/LARLalitpur (3)X  05:09 04:55+2705:10 04:57+301 2m33639.0114373mNCRLalitpur, Uttar Pradesh
55/==/TBTTalbahat (4)X  05:31 05:18+3305:33 05:20+332m33678.965314mNCRKhaniyadhana Station Rd, Madhya Pradesh
56/==/BABBabina (3)X  05:54 05:43+3905:55 05:45+391 2m13703.834285mNCRBabina, Uttar Pradesh
57/==/JHSJhansi Junction (7)  06:35 06:30+2806:43 06:40+338 10m43729.375259mNCRJhansi, Uttar Pradesh
58/==/DAADatia (2)  07:06 07:00+3707:07 07:02+401 2m--3754.476264mNCRDatia, Madhya Pradesh
59/==/DBADabra (3)  07:29 07:26+4607:30 07:28+511 2m13784.879 NCRDabra(District-Gwalior), Madhya Pradesh
60/==/GWLGwalior Junction (4)  08:35 08:00+1:1108:40 08:05+1:115m23827.134214mNCRGwalior, Madhya Pradesh
61/==/MRAMorena (3)  09:08 09:13+4409:09 09:15+461 2m23865.681176mNCRMorena, Madhya Pradesh
62/==/DHODholpur Junction (3)X  09:33 09:35+5109:34 09:37+541 2m13892.546177mNCRDholpur, Rajasthan
63/==/AGCAgra Cantt. (6)X  10:45+4110:53+468m33945.117174mNCRAgra, Uttar Pradesh
64/==/RKMRaja Ki Mandi (4)  11:03 11:07+4611:04 11:09+461 2m13949.169170mNCRAgra, Uttar Pradesh
65/==/MTJMathura Junction (10)X  11:47 11:52+5011:52 11:57+505m23998.864179mNCRMathura, Uttar Pradesh
66/==/FDBFaridabad (4)X  13:30 13:43+4713:31 13:45+501 2m231111.923206mNRold Faridabad, Haryana
67/==/NZMDelhi Hazrat Nizamuddin (7)XOO14:05 14:40+3814:35 15:10+3830m131132.737209mNRNew Delhi 110013, Delhi NCT
68/==/GZBGhaziabad Junction (6)  15:11 15:48+5115:13 15:50+522m131156.145217mNRGhaziabad, Uttar Pradesh
69%==%MTCMeerut City Junction (6)X  15:55 16:53+4216:00 16:56+435 3m131203.437229mNRMeerut, Uttar Pradesh
70%--%MUTMeerut Cantt. (2) new halt!!  17:03+5217:05+522m--31207.772230mNRMeerut, Uttar Pradesh
71%--%MOZMuzaffarnagar (3)  16:52 17:48+4916:53 17:50+511 2m131259.045247mNRMuzaffarNagar, Uttar Pradesh
72%--%DBDDeoband (2)  18:11 18:22+2718:12 18:24+291 2m131283.052258mNRSaharanpur, Uttar Pradesh
73%--/TPZTapri Junction (2)  19:01 18:56+2319:02 18:58+231 2m231310.760274mNRTapri -Saharanpur, Uttar Pradesh
74/==/RKRoorkee (3)X  19:37 19:30+5019:38 19:35+491 5m331342.734264mNRRoorkee - 247667, Uttarakhand
75%--%HWHaridwar Junction (9)•  20:30 20:55+22-231387.4-294mNRHaridwar, Uttarakhand
Scroll to Top
Scroll to Bottom